Airfield :
LOGIN :

Register | Disclaimer

   EN    FR    IT 

 










Legend :    VFR   Marginal VFR   IFR   Intensive IFR   Very Intensive IFR
Visi :
Ceiling :
>= 8 km
>= 3000ft
5 to 8 km
1000 to 3000 ft
1500m to 5 km
500 to 1000 ft
800 to 1500m
200 to 500 ft
< 800m
< 200 ft
Symbols :   Thunderstorms  Fog  Heavy snow  Heavy precipitations  Wind > 20 kt
SIGMETs :     Misc.  Thunderstorms  Icing  Turbulence  Mountain Waves  Volcanic Ashes







- Airport Elevation : 436 ft
- IATA code : ANG
- Download approach charts


LFBU - Angoulême Brie Champniers

CURRENT METAR :
  • 231400Z AUTO 15008KT 110V170 9999 -RA FEW014/// SCT024/// BKN043/// ///TCU 07/04 Q1009 TEMPO 4000 -SHRA BKN008

EXPIRED METARs :
  • 231330Z AUTO 16005KT 120V210 7000 -RA SCT015 BKN020 BKN026 07/05 Q1009 TEMPO 4000 -SHRA BKN008
  • 231300Z AUTO 14008KT 090V170 9999 SCT015 BKN041 OVC100 08/05 Q1009 TEMPO 4000 -SHRA BKN008
  • 231230Z AUTO 16007KT 110V190 9999 BKN013 BKN019 BKN024 07/05 Q1009 TEMPO 4000 -SHRA BKN008
  • 231200Z AUTO 15009KT 120V180 9999 BKN014 BKN022 OVC028 07/05 Q1009 TEMPO 4000 -SHRA BKN008
  • 231130Z AUTO 15006KT 120V180 9999 BKN012 BKN018 OVC024 06/05 Q1009 TEMPO 4000 -SHRA BKN008

TAF TAF LFBU
Valid from the 23 at 12:00 until the 24 at 12:00 UTC


231100Z 2312/2412 16006KT 9999 SCT008 BKN025
TEMPO 2312/2317 4000 -SHRA BKN008
BECMG 2317/2319 CAVOK
TEMPO 2402/2407 2000 BR NSC
No reported NOTAMs for that airfield.



MET'MAP, your aeronautical weather chart ! - Copyright ORBIFLY December 2007 - Disclaimer

ORBIFLY MET'MAP TEAM :

Programming & Development : Alexandra Zaïnal
Concept & Development : Baudouin d'Aumeries
Co-Development & Prog : Marc-Olivier Méhu
Technical & hardware support : Manuel Goepfert

Contact : metmap@orbifly.com




SOURCES & CREDITS :

   NOAA